Time;durP1;ratioP1;P1;durP2;ratioP2;P2;SDS_P1;SDS_P2;PMS_P1;PMS_P2;Temp;Humidity;BMP_temperature;BMP_pressure;BME280_temperature;BME280_humidity;BME280_pressure;Samples;Min_cycle;Max_cycle;Signal;HPM_P1;HPM_P2
2023/06/04 00:00:32;;;;;;;67.83;5.17;;;;;;;;;;5013424;28;20815;-55
2023/06/04 00:02:57;;;;;;;58.70;4.90;;;;;;;;;;5011837;28;20033;-57
2023/06/04 00:05:25;;;;;;;60.25;4.78;;;;;;;;;;5014229;28;20645;-57
2023/06/04 00:07:50;;;;;;;100.38;7.82;;;;;;;;;;5012920;28;20455;-56
2023/06/04 00:10:16;;;;;;;53.70;4.38;;;;;;;;;;5013129;28;20029;-57
2023/06/04 00:12:41;;;;;;;114.63;8.38;;;;;;;;;;5012298;28;20036;-55
2023/06/04 00:15:06;;;;;;;73.43;5.80;;;;;;;;;;5016817;28;20056;-56
2023/06/04 00:17:32;;;;;;;71.72;5.60;;;;;;;;;;5017042;28;20268;-56
2023/06/04 00:19:57;;;;;;;61.90;4.90;;;;;;;;;;5015629;28;20037;-55
2023/06/04 00:22:24;;;;;;;54.63;4.73;;;;;;;;;;5014567;28;20045;-55
2023/06/04 00:24:49;;;;;;;96.10;7.22;;;;;;;;;;5015858;28;20275;-55
2023/06/04 00:27:14;;;;;;;37.55;3.75;;;;;;;;;;5017911;28;20034;-55
2023/06/04 00:29:39;;;;;;;82.50;6.15;;;;;;;;;;5012935;28;20529;-56
2023/06/04 00:32:05;;;;;;;71.78;5.65;;;;;;;;;;5014610;28;20047;-56
2023/06/04 00:34:30;;;;;;;59.28;4.53;;;;;;;;;;5014558;28;20450;-56
2023/06/04 00:36:56;;;;;;;52.50;4.70;;;;;;;;;;5014539;28;20129;-58
2023/06/04 00:39:21;;;;;;;65.30;5.17;;;;;;;;;;5015889;28;20496;-56
2023/06/04 00:41:46;;;;;;;123.07;9.10;;;;;;;;;;5013129;28;20855;-58
2023/06/04 00:44:11;;;;;;;65.60;5.35;;;;;;;;;;5017068;28;20025;-56
2023/06/04 00:46:37;;;;;;;51.20;4.53;;;;;;;;;;5014439;28;20326;-54
2023/06/04 00:49:02;;;;;;;59.58;4.82;;;;;;;;;;5016661;28;20279;-55
2023/06/04 00:51:29;;;;;;;74.57;5.80;;;;;;;;;;5015624;28;20033;-56
2023/06/04 00:53:54;;;;;;;93.45;7.07;;;;;;;;;;5015127;28;20028;-55
2023/06/04 00:56:20;;;;;;;60.77;4.73;;;;;;;;;;5015258;28;20037;-55
2023/06/04 00:58:46;;;;;;;105.93;8.07;;;;;;;;;;5015003;28;20260;-56
2023/06/04 01:01:26;;;;;;;59.90;4.90;;;;;;;;;;5014925;28;20068;-55
2023/06/04 01:03:54;;;;;;;115.57;8.20;;;;;;;;;;5014421;28;20376;-55
2023/06/04 01:06:22;;;;;;;80.13;6.00;;;;;;;;;;5016184;28;20034;-56
2023/06/04 01:08:54;;;;;;;140.85;10.27;;;;;;;;;;5014538;28;20021;-57
2023/06/04 01:11:30;;;;;;;53.08;4.57;;;;;;;;;;5014916;28;20038;-58
2023/06/04 01:13:55;;;;;;;127.80;9.48;;;;;;;;;;5015787;28;20089;-56
2023/06/04 01:16:20;;;;;;;50.25;4.20;;;;;;;;;;5016993;28;20125;-55
2023/06/04 01:18:47;;;;;;;111.78;8.15;;;;;;;;;;5016291;28;20026;-54
2023/06/04 01:21:18;;;;;;;76.25;5.65;;;;;;;;;;5016004;28;20352;-55
2023/06/04 01:23:58;;;;;;;100.32;7.40;;;;;;;;;;5014634;28;20013;-57
2023/06/04 01:26:24;;;;;;;63.63;5.03;;;;;;;;;;5014967;28;20029;-57
2023/06/04 01:28:50;;;;;;;73.65;6.07;;;;;;;;;;5015153;28;20779;-55
2023/06/04 01:31:16;;;;;;;54.17;4.70;;;;;;;;;;5015702;28;20809;-57
2023/06/04 01:33:41;;;;;;;61.35;4.78;;;;;;;;;;5017538;28;20035;-60
2023/06/04 01:36:10;;;;;;;70.05;5.45;;;;;;;;;;5016417;28;20064;-57
2023/06/04 01:38:35;;;;;;;54.85;4.68;;;;;;;;;;5017148;28;20029;-56
2023/06/04 01:41:01;;;;;;;81.32;6.28;;;;;;;;;;5016374;28;20037;-58
2023/06/04 01:43:27;;;;;;;64.93;4.95;;;;;;;;;;5018079;28;20100;-56
2023/06/04 01:45:54;;;;;;;105.35;8.05;;;;;;;;;;5016146;28;20037;-57
2023/06/04 01:48:19;;;;;;;86.75;6.15;;;;;;;;;;5015844;28;20074;-56
2023/06/04 11:00:49;;;;;;;44.03;5.85;;;;;;;;;;5086101;27;20409;-57
2023/06/04 11:03:15;;;;;;;34.10;5.13;;;;;;;;;;5055954;28;20040;-55
2023/06/04 11:05:44;;;;;;;49.42;6.88;;;;;;;;;;5061236;28;20039;-58
2023/06/04 11:08:11;;;;;;;39.65;5.47;;;;;;;;;;5062155;28;20052;-58
2023/06/04 11:10:45;;;;;;;45.47;6.45;;;;;;;;;;5090890;28;20039;-57
2023/06/04 11:13:11;;;;;;;32.65;5.03;;;;;;;;;;5060817;28;20029;-56
2023/06/04 11:15:40;;;;;;;34.97;5.13;;;;;;;;;;5059561;28;20078;-58
2023/06/04 11:18:05;;;;;;;31.00;4.90;;;;;;;;;;5059641;28;20025;-56
2023/06/04 11:20:30;;;;;;;52.10;6.57;;;;;;;;;;5059387;28;20076;-57
2023/06/04 11:22:56;;;;;;;42.77;5.23;;;;;;;;;;5058698;28;20263;-58
2023/06/04 11:25:23;;;;;;;56.17;7.63;;;;;;;;;;5058350;28;20278;-55
2023/06/04 11:27:49;;;;;;;31.63;4.88;;;;;;;;;;5063456;28;20020;-55
2023/06/04 11:30:15;;;;;;;37.20;5.07;;;;;;;;;;5059799;28;20028;-56
2023/06/04 11:32:40;;;;;;;36.28;4.82;;;;;;;;;;5055658;28;20028;-56
2023/06/04 11:35:07;;;;;;;44.83;5.60;;;;;;;;;;5058974;28;20044;-55
2023/06/04 11:37:33;;;;;;;64.82;8.02;;;;;;;;;;5059739;28;20023;-55
2023/06/04 11:39:58;;;;;;;30.35;4.35;;;;;;;;;;5059657;28;20107;-55
2023/06/04 11:42:24;;;;;;;68.88;8.20;;;;;;;;;;5058458;28;20029;-55
2023/06/04 11:44:55;;;;;;;29.30;4.28;;;;;;;;;;5059361;28;20433;-56
2023/06/04 11:47:20;;;;;;;59.88;7.32;;;;;;;;;;5058111;28;20028;-57
2023/06/04 11:49:45;;;;;;;56.33;6.20;;;;;;;;;;5060412;28;20024;-56
2023/06/04 11:52:11;;;;;;;54.43;6.20;;;;;;;;;;5057461;28;20398;-58
2023/06/04 11:54:38;;;;;;;93.82;9.90;;;;;;;;;;5059424;28;20036;-57
2023/06/04 11:57:04;;;;;;;57.33;6.32;;;;;;;;;;5059301;28;20123;-55
2023/06/04 11:59:30;;;;;;;88.82;9.32;;;;;;;;;;5061163;28;20012;-57
2023/06/04 12:01:57;;;;;;;70.22;7.53;;;;;;;;;;5060033;28;20036;-56
2023/06/04 12:04:22;;;;;;;59.53;6.43;;;;;;;;;;5060530;28;20029;-56
2023/06/04 12:06:57;;;;;;;63.77;7.00;;;;;;;;;;5059659;28;20529;-56
2023/06/04 12:09:23;;;;;;;82.00;8.70;;;;;;;;;;5061176;28;20275;-60
2023/06/04 12:11:49;;;;;;;80.50;8.25;;;;;;;;;;5047057;28;20032;-57
2023/06/04 12:14:18;;;;;;;62.67;6.85;;;;;;;;;;5047881;28;20029;-55
2023/06/04 12:16:54;;;;;;;39.63;4.78;;;;;;;;;;5076092;28;20037;-57
2023/06/04 12:19:19;;;;;;;46.58;5.57;;;;;;;;;;5047456;28;20029;-54
2023/06/04 12:21:44;;;;;;;57.97;6.38;;;;;;;;;;5042842;28;20063;-56
2023/06/04 12:24:10;;;;;;;46.83;5.67;;;;;;;;;;5045258;28;20017;-55
2023/06/04 12:26:43;;;;;;;84.65;8.90;;;;;;;;;;5044723;28;20510;-55
2023/06/04 12:29:13;;;;;;;76.70;7.95;;;;;;;;;;5045834;28;20035;-56
2023/06/04 12:31:42;;;;;;;96.80;11.07;;;;;;;;;;5044796;28;20126;-57
2023/06/04 12:34:07;;;;;;;60.90;6.78;;;;;;;;;;5047234;28;20027;-57
2023/06/04 12:36:33;;;;;;;80.65;8.23;;;;;;;;;;5043897;28;20045;-58
2023/06/04 12:39:00;;;;;;;55.28;5.88;;;;;;;;;;5048190;28;20039;-55
2023/06/04 12:41:25;;;;;;;65.10;7.43;;;;;;;;;;5043943;28;20715;-55
2023/06/04 12:43:51;;;;;;;50.30;5.72;;;;;;;;;;5047459;28;20025;-55
2023/06/04 12:46:16;;;;;;;55.42;5.85;;;;;;;;;;5047682;28;20183;-57
2023/06/04 12:48:42;;;;;;;55.65;5.90;;;;;;;;;;5044029;28;20055;-56
2023/06/04 12:51:10;;;;;;;55.72;6.10;;;;;;;;;;5045970;28;20222;-55
2023/06/04 12:53:35;;;;;;;64.45;7.07;;;;;;;;;;5042549;28;20021;-57
2023/06/04 12:56:00;;;;;;;40.73;4.90;;;;;;;;;;5044126;28;20040;-57
2023/06/04 12:58:25;;;;;;;59.53;6.80;;;;;;;;;;5042926;28;20372;-55
2023/06/04 13:00:51;;;;;;;41.20;5.17;;;;;;;;;;5045146;28;20028;-56
2023/06/04 13:03:17;;;;;;;38.17;4.90;;;;;;;;;;5043463;28;20293;-54
2023/06/04 13:05:42;;;;;;;39.58;5.75;;;;;;;;;;5043077;28;20811;-57
2023/06/04 13:08:07;;;;;;;49.00;6.30;;;;;;;;;;5045023;28;20473;-58
2023/06/04 13:10:32;;;;;;;69.93;7.80;;;;;;;;;;5043454;28;20388;-56
2023/06/04 13:12:57;;;;;;;40.63;5.33;;;;;;;;;;5043240;28;20609;-59
2023/06/04 13:15:23;;;;;;;46.83;5.77;;;;;;;;;;5042966;28;20277;-55
2023/06/04 13:17:48;;;;;;;45.13;5.72;;;;;;;;;;5043230;28;20069;-56
2023/06/04 13:20:13;;;;;;;50.57;5.87;;;;;;;;;;5043201;28;20662;-57
2023/06/04 13:22:40;;;;;;;95.93;9.90;;;;;;;;;;5043326;28;20313;-56
2023/06/04 13:25:05;;;;;;;51.45;5.90;;;;;;;;;;5043163;28;20295;-58
2023/06/04 13:27:30;;;;;;;73.25;7.18;;;;;;;;;;5042390;28;20100;-56
2023/06/04 13:29:56;;;;;;;38.58;5.03;;;;;;;;;;5044603;28;20556;-56
2023/06/04 13:32:21;;;;;;;52.90;5.83;;;;;;;;;;5041686;28;20457;-57
2023/06/04 13:34:46;;;;;;;51.77;6.17;;;;;;;;;;5042428;28;20237;-56
2023/06/04 13:37:12;;;;;;;57.17;6.40;;;;;;;;;;5076479;28;20102;-56
2023/06/04 13:39:38;;;;;;;89.97;9.40;;;;;;;;;;5043691;28;20294;-55
2023/06/04 13:42:03;;;;;;;70.65;8.35;;;;;;;;;;5042093;28;20021;-56
2023/06/04 13:44:28;;;;;;;82.03;9.07;;;;;;;;;;5072311;28;20028;-56
2023/06/04 13:46:54;;;;;;;61.20;6.72;;;;;;;;;;5043993;28;20591;-57
2023/06/04 13:49:19;;;;;;;56.22;6.50;;;;;;;;;;5045032;28;20245;-56
2023/06/04 13:51:44;;;;;;;62.78;6.68;;;;;;;;;;5040721;28;20041;-56
2023/06/04 13:54:09;;;;;;;73.40;7.73;;;;;;;;;;5043582;28;20506;-56
2023/06/04 13:56:35;;;;;;;101.37;10.13;;;;;;;;;;5042635;28;20267;-57
2023/06/04 13:59:00;;;;;;;60.70;6.47;;;;;;;;;;5041784;28;20573;-59
2023/06/04 14:01:25;;;;;;;58.45;6.28;;;;;;;;;;5041050;28;20275;-57
2023/06/04 14:03:51;;;;;;;57.63;6.45;;;;;;;;;;5045454;28;20024;-58
2023/06/04 14:06:17;;;;;;;62.25;6.75;;;;;;;;;;5042752;28;20124;-56
2023/06/04 14:08:42;;;;;;;108.55;10.13;;;;;;;;;;5042693;28;20141;-56
2023/06/04 14:11:07;;;;;;;73.83;7.40;;;;;;;;;;5042822;28;20098;-56
2023/06/04 14:13:32;;;;;;;100.60;10.20;;;;;;;;;;5073158;28;20307;-56
2023/06/04 14:15:58;;;;;;;55.67;5.83;;;;;;;;;;5043171;28;20653;-57
2023/06/04 14:18:23;;;;;;;66.93;6.83;;;;;;;;;;5043698;28;20263;-57
2023/06/04 14:20:48;;;;;;;69.73;7.13;;;;;;;;;;5042515;28;21102;-59
2023/06/04 14:23:13;;;;;;;61.37;6.80;;;;;;;;;;5044555;28;20079;-57
2023/06/04 14:25:39;;;;;;;105.38;10.60;;;;;;;;;;5040729;28;20045;-56
2023/06/04 14:28:04;;;;;;;67.68;7.10;;;;;;;;;;5045139;28;20025;-60
2023/06/04 14:30:29;;;;;;;69.65;7.35;;;;;;;;;;5042254;28;20044;-57
2023/06/04 14:32:55;;;;;;;65.93;7.07;;;;;;;;;;5042380;28;20407;-55
2023/06/04 14:35:20;;;;;;;58.90;6.50;;;;;;;;;;5045031;28;20301;-55
2023/06/04 14:37:45;;;;;;;103.53;10.27;;;;;;;;;;5043148;28;20256;-55
2023/06/04 14:40:10;;;;;;;81.83;7.83;;;;;;;;;;5042487;28;20314;-57
2023/06/04 14:42:36;;;;;;;99.20;10.07;;;;;;;;;;5039729;28;20056;-56
2023/06/04 14:45:01;;;;;;;62.40;7.03;;;;;;;;;;5043147;28;20214;-56
2023/06/04 14:47:27;;;;;;;50.42;6.00;;;;;;;;;;5042497;28;20279;-58
2023/06/04 14:49:52;;;;;;;64.60;6.77;;;;;;;;;;5041477;28;20035;-56
2023/06/04 14:52:17;;;;;;;57.00;6.10;;;;;;;;;;5041074;28;20033;-58
2023/06/04 14:54:42;;;;;;;108.97;10.63;;;;;;;;;;5041452;28;20271;-56
2023/06/04 14:57:08;;;;;;;59.70;6.10;;;;;;;;;;5045733;28;20032;-57
2023/06/04 14:59:33;;;;;;;92.87;8.77;;;;;;;;;;5044141;28;20089;-59
2023/06/04 15:01:58;;;;;;;89.70;8.43;;;;;;;;;;5041020;28;20835;-56
2023/06/04 15:04:24;;;;;;;58.67;6.43;;;;;;;;;;5044526;28;20033;-56
2023/06/04 15:06:49;;;;;;;69.30;7.50;;;;;;;;;;5040300;28;20827;-58
2023/06/04 15:09:14;;;;;;;58.70;6.78;;;;;;;;;;5045091;28;20016;-56
2023/06/04 15:11:40;;;;;;;117.77;11.50;;;;;;;;;;5041328;28;20040;-56
2023/06/04 15:14:05;;;;;;;65.35;6.97;;;;;;;;;;5040774;28;20676;-58
2023/06/04 15:16:30;;;;;;;61.53;6.57;;;;;;;;;;5042991;28;20477;-58
2023/06/04 15:18:56;;;;;;;69.50;6.93;;;;;;;;;;5045557;28;20032;-57
2023/06/04 15:21:22;;;;;;;64.82;6.65;;;;;;;;;;5042121;28;20463;-55
2023/06/04 15:23:48;;;;;;;99.65;9.85;;;;;;;;;;5072807;28;20063;-58
2023/06/04 15:26:13;;;;;;;73.03;7.28;;;;;;;;;;5043812;28;20538;-59
2023/06/04 15:28:39;;;;;;;106.38;10.30;;;;;;;;;;5042550;28;20036;-56
2023/06/04 15:31:04;;;;;;;97.37;9.00;;;;;;;;;;5041509;28;20056;-56
2023/06/04 15:33:29;;;;;;;62.03;6.82;;;;;;;;;;5042782;28;20044;-58
2023/06/04 15:35:55;;;;;;;61.20;6.57;;;;;;;;;;5042131;28;20040;-56
2023/06/04 15:38:20;;;;;;;59.63;6.85;;;;;;;;;;5075846;28;20569;-57
2023/06/04 15:40:45;;;;;;;97.13;9.20;;;;;;;;;;5041541;28;20040;-56
2023/06/04 15:43:11;;;;;;;61.20;6.82;;;;;;;;;;5041662;28;20330;-54
2023/06/04 15:45:36;;;;;;;120.22;11.32;;;;;;;;;;5043691;28;20458;-55
2023/06/04 15:48:01;;;;;;;58.17;6.53;;;;;;;;;;5046657;28;20510;-54
2023/06/04 15:50:26;;;;;;;80.70;7.77;;;;;;;;;;5046034;28;20259;-55
2023/06/04 15:52:52;;;;;;;60.57;6.50;;;;;;;;;;5044314;28;20019;-57
2023/06/04 15:55:17;;;;;;;67.97;6.87;;;;;;;;;;5045337;28;20475;-56
2023/06/04 15:57:42;;;;;;;109.90;10.73;;;;;;;;;;5043597;28;20664;-58
2023/06/04 16:00:08;;;;;;;71.47;7.20;;;;;;;;;;5046680;28;20295;-57
2023/06/04 16:02:34;;;;;;;70.07;7.50;;;;;;;;;;5044268;28;20202;-56
2023/06/04 16:04:59;;;;;;;73.33;7.70;;;;;;;;;;5077234;28;20017;-58
2023/06/04 16:07:24;;;;;;;53.63;6.30;;;;;;;;;;5045766;28;20274;-55
2023/06/04 16:09:49;;;;;;;124.37;11.73;;;;;;;;;;5042460;28;20070;-58
2023/06/04 16:12:15;;;;;;;78.17;7.93;;;;;;;;;;5044313;28;20041;-56
2023/06/04 16:14:40;;;;;;;93.30;8.97;;;;;;;;;;5044340;28;20029;-56
2023/06/04 16:17:05;;;;;;;71.97;7.37;;;;;;;;;;5046476;28;20062;-55
2023/06/04 16:19:30;;;;;;;67.45;6.78;;;;;;;;;;5048041;28;20295;-55
2023/06/04 16:21:56;;;;;;;96.95;9.10;;;;;;;;;;5042344;28;20036;-57
2023/06/04 16:24:21;;;;;;;78.30;7.70;;;;;;;;;;5044680;28;20063;-55
2023/06/04 16:26:46;;;;;;;106.85;10.40;;;;;;;;;;5043749;28;20037;-55
2023/06/04 16:29:12;;;;;;;69.20;7.35;;;;;;;;;;5046298;28;20444;-56
2023/06/04 16:31:37;;;;;;;91.60;8.73;;;;;;;;;;5041962;28;20055;-57
2023/06/04 16:34:02;;;;;;;58.97;6.60;;;;;;;;;;5044597;28;20293;-55
2023/06/04 16:36:27;;;;;;;73.43;7.63;;;;;;;;;;5043051;28;20284;-55
2023/06/04 16:38:53;;;;;;;108.03;9.57;;;;;;;;;;5043544;28;20513;-56
2023/06/04 16:41:18;;;;;;;62.83;6.87;;;;;;;;;;5042674;28;20267;-56
2023/06/04 16:43:43;;;;;;;113.00;10.23;;;;;;;;;;5045180;28;20496;-54
2023/06/04 16:46:08;;;;;;;71.38;7.22;;;;;;;;;;5046722;28;20289;-55
2023/06/04 16:48:34;;;;;;;59.97;7.13;;;;;;;;;;5045092;28;20035;-55
2023/06/04 16:50:59;;;;;;;79.65;8.18;;;;;;;;;;5042639;28;20704;-56
2023/06/04 16:53:24;;;;;;;60.95;6.38;;;;;;;;;;5042737;28;20470;-56
2023/06/04 16:55:49;;;;;;;101.45;10.23;;;;;;;;;;5041737;28;20085;-58
2023/06/04 16:58:15;;;;;;;65.83;7.33;;;;;;;;;;5045015;28;20093;-59
2023/06/04 17:00:40;;;;;;;84.45;8.27;;;;;;;;;;5042206;28;20283;-57
2023/06/04 17:03:06;;;;;;;73.65;7.65;;;;;;;;;;5042595;28;20393;-58
2023/06/04 17:05:31;;;;;;;61.33;6.57;;;;;;;;;;5045765;28;20732;-58
2023/06/04 17:07:56;;;;;;;68.43;6.83;;;;;;;;;;5044300;28;20033;-56
2023/06/04 17:10:27;;;;;;;67.55;7.05;;;;;;;;;;5044303;28;20012;-56
2023/06/04 17:12:52;;;;;;;102.22;9.65;;;;;;;;;;5041766;28;20455;-60
2023/06/04 17:15:17;;;;;;;72.70;7.63;;;;;;;;;;5045786;28;20586;-57
2023/06/04 17:17:43;;;;;;;103.47;10.50;;;;;;;;;;5043583;28;20361;-57
2023/06/04 17:20:08;;;;;;;68.23;7.43;;;;;;;;;;5044538;28;20017;-59
2023/06/04 17:22:33;;;;;;;73.53;7.60;;;;;;;;;;5043260;28;20365;-60
2023/06/04 17:24:59;;;;;;;60.73;6.60;;;;;;;;;;5043859;28;20044;-57
2023/06/04 17:27:24;;;;;;;156.73;14.17;;;;;;;;;;5043164;28;20287;-55
2023/06/04 17:29:50;;;;;;;113.25;10.15;;;;;;;;;;5050612;28;20313;-57
2023/06/04 17:32:15;;;;;;;70.80;7.25;;;;;;;;;;5042631;28;20029;-56
2023/06/04 17:34:41;;;;;;;80.90;8.13;;;;;;;;;;5042835;28;20093;-55
2023/06/04 17:37:06;;;;;;;83.47;8.00;;;;;;;;;;5045211;28;20263;-59
2023/06/04 17:39:33;;;;;;;54.05;6.03;;;;;;;;;;5044754;28;20573;-55
2023/06/04 17:41:58;;;;;;;100.38;9.35;;;;;;;;;;5042867;28;20040;-55
2023/06/04 17:44:24;;;;;;;60.40;6.20;;;;;;;;;;5042680;28;20017;-58
2023/06/04 17:46:49;;;;;;;103.68;10.18;;;;;;;;;;5043317;28;20434;-54
2023/06/04 17:49:15;;;;;;;74.85;7.35;;;;;;;;;;5043320;28;20071;-56
2023/06/04 17:51:40;;;;;;;71.27;7.47;;;;;;;;;;5042164;28;20502;-57
2023/06/04 17:54:06;;;;;;;82.47;8.25;;;;;;;;;;5044126;28;20259;-56
2023/06/04 17:56:32;;;;;;;70.00;7.30;;;;;;;;;;5041395;28;20033;-56
2023/06/04 17:58:57;;;;;;;105.65;10.40;;;;;;;;;;5044266;28;20086;-55
2023/06/04 18:01:22;;;;;;;70.17;7.17;;;;;;;;;;5043468;28;20121;-57
2023/06/04 18:03:49;;;;;;;111.47;10.60;;;;;;;;;;5074443;28;20879;-58
2023/06/04 18:06:15;;;;;;;114.40;10.20;;;;;;;;;;5042981;28;20406;-56
2023/06/04 18:08:40;;;;;;;78.00;7.65;;;;;;;;;;5042341;28;20134;-55
2023/06/04 18:11:06;;;;;;;94.88;8.98;;;;;;;;;;5043459;28;20029;-56
2023/06/04 18:13:31;;;;;;;76.32;7.63;;;;;;;;;;5040992;28;20110;-56
2023/06/04 18:15:56;;;;;;;101.50;10.23;;;;;;;;;;5042757;28;20059;-58
2023/06/04 18:18:21;;;;;;;68.25;6.78;;;;;;;;;;5042516;28;20255;-55
2023/06/04 18:20:47;;;;;;;124.20;11.52;;;;;;;;;;5039625;28;20072;-59
2023/06/04 18:23:12;;;;;;;70.90;7.77;;;;;;;;;;5041349;28;20467;-55
2023/06/04 18:25:38;;;;;;;98.72;7.80;;;;;;;;;;5041532;28;20278;-56
2023/06/04 18:28:03;;;;;;;66.20;7.00;;;;;;;;;;5042309;28;20147;-56
2023/06/04 18:30:28;;;;;;;82.57;7.87;;;;;;;;;;5043019;28;20085;-55
2023/06/04 18:32:54;;;;;;;107.23;9.97;;;;;;;;;;5039374;28;20041;-55
2023/06/04 18:35:19;;;;;;;77.63;7.38;;;;;;;;;;5044037;28;20977;-56
2023/06/04 18:37:44;;;;;;;78.67;8.00;;;;;;;;;;5041384;28;20522;-57
2023/06/04 18:40:10;;;;;;;84.05;8.10;;;;;;;;;;5042058;28;20283;-58
2023/06/04 18:42:35;;;;;;;68.85;6.95;;;;;;;;;;5042832;28;20052;-56
2023/06/04 18:45:03;;;;;;;104.53;8.95;;;;;;;;;;5042188;28;20136;-56
2023/06/04 18:47:29;;;;;;;79.28;8.07;;;;;;;;;;5072607;28;20037;-55
2023/06/04 18:49:55;;;;;;;123.63;11.88;;;;;;;;;;5041197;28;20653;-56
2023/06/04 18:52:21;;;;;;;79.38;7.57;;;;;;;;;;5041415;28;20033;-57
2023/06/04 18:54:46;;;;;;;101.63;9.07;;;;;;;;;;5041666;28;20031;-58
2023/06/04 18:57:13;;;;;;;65.72;6.68;;;;;;;;;;5041801;28;20654;-57
2023/06/04 18:59:38;;;;;;;94.78;8.55;;;;;;;;;;5042891;28;20070;-57
2023/06/04 19:02:03;;;;;;;73.30;7.00;;;;;;;;;;5041203;28;20123;-56
2023/06/04 19:04:29;;;;;;;65.60;6.75;;;;;;;;;;5043753;28;20338;-56
2023/06/04 19:06:54;;;;;;;101.20;9.47;;;;;;;;;;5041211;28;20406;-58
2023/06/04 19:09:19;;;;;;;67.20;6.70;;;;;;;;;;5042785;28;20395;-56
2023/06/04 19:11:45;;;;;;;75.63;7.45;;;;;;;;;;5039749;28;20585;-56
2023/06/04 19:14:10;;;;;;;65.65;6.75;;;;;;;;;;5042311;28;20627;-59
2023/06/04 19:16:35;;;;;;;69.88;7.10;;;;;;;;;;5041505;28;20376;-58
2023/06/04 19:19:01;;;;;;;94.80;8.83;;;;;;;;;;5039106;28;20260;-57
2023/06/04 19:21:26;;;;;;;83.55;7.68;;;;;;;;;;5044759;28;21293;-57
2023/06/04 19:23:51;;;;;;;107.72;10.13;;;;;;;;;;5045777;28;20021;-56
2023/06/04 19:26:16;;;;;;;99.77;8.97;;;;;;;;;;5044620;28;20025;-57
2023/06/04 19:28:42;;;;;;;75.65;6.93;;;;;;;;;;5046057;28;20312;-59
2023/06/04 19:31:07;;;;;;;100.72;8.82;;;;;;;;;;5042192;28;20033;-59
2023/06/04 19:33:33;;;;;;;72.65;7.15;;;;;;;;;;5043709;28;20055;-58
2023/06/04 19:35:59;;;;;;;112.18;10.82;;;;;;;;;;5043267;28;20059;-57
2023/06/04 19:38:24;;;;;;;83.28;7.65;;;;;;;;;;5045988;28;20013;-56
2023/06/04 19:40:49;;;;;;;101.93;9.30;;;;;;;;;;5043993;28;20044;-56
2023/06/04 19:43:15;;;;;;;65.73;6.90;;;;;;;;;;5043854;28;20686;-56
2023/06/04 19:45:40;;;;;;;87.40;9.95;;;;;;;;;;5045176;28;20302;-55
2023/06/04 19:48:05;;;;;;;68.37;10.27;;;;;;;;;;5044462;28;20059;-55
2023/06/04 19:50:31;;;;;;;82.80;9.52;;;;;;;;;;5046471;28;21051;-56
2023/06/04 19:52:56;;;;;;;107.38;10.45;;;;;;;;;;5044931;28;20115;-57
2023/06/04 19:55:21;;;;;;;71.07;8.23;;;;;;;;;;5043532;28;20033;-58
2023/06/04 19:57:47;;;;;;;80.10;9.15;;;;;;;;;;5045953;28;20774;-57
2023/06/04 20:00:13;;;;;;;70.38;7.82;;;;;;;;;;5045459;28;20394;-57
2023/06/04 20:02:38;;;;;;;81.53;8.73;;;;;;;;;;5044884;28;20662;-57
2023/06/04 20:05:04;;;;;;;124.20;10.75;;;;;;;;;;5044247;28;20637;-55
2023/06/04 20:07:29;;;;;;;69.53;7.22;;;;;;;;;;5045862;28;20032;-55
2023/06/04 20:09:55;;;;;;;95.22;9.18;;;;;;;;;;5044023;28;20422;-56
2023/06/04 20:12:20;;;;;;;83.13;8.48;;;;;;;;;;5044044;28;20090;-57
2023/06/04 20:14:46;;;;;;;82.82;8.30;;;;;;;;;;5047688;28;20604;-57
2023/06/04 20:17:12;;;;;;;86.72;8.35;;;;;;;;;;5044698;28;20121;-57
2023/06/04 20:19:37;;;;;;;90.65;8.75;;;;;;;;;;5048561;28;20039;-58
2023/06/04 20:22:02;;;;;;;126.20;11.57;;;;;;;;;;5042115;28;20031;-57
2023/06/04 20:24:27;;;;;;;82.40;7.93;;;;;;;;;;5047620;28;20291;-57
2023/06/04 20:26:53;;;;;;;93.95;8.70;;;;;;;;;;5045637;28;20098;-55
2023/06/04 20:29:18;;;;;;;70.47;7.15;;;;;;;;;;5044848;28;20517;-56
2023/06/04 20:31:43;;;;;;;107.82;9.57;;;;;;;;;;5042710;28;20098;-56
2023/06/04 20:34:08;;;;;;;79.87;7.30;;;;;;;;;;5043883;28;20078;-56
2023/06/04 20:36:35;;;;;;;82.60;7.57;;;;;;;;;;5045501;28;20279;-57
2023/06/04 20:39:01;;;;;;;130.43;11.48;;;;;;;;;;5045419;28;20345;-57
2023/06/04 20:41:26;;;;;;;83.18;7.75;;;;;;;;;;5043269;28;20524;-56
2023/06/04 20:43:55;;;;;;;86.47;7.67;;;;;;;;;;5043482;28;20254;-56
2023/06/04 20:46:20;;;;;;;71.68;6.78;;;;;;;;;;5043706;28;20288;-56
2023/06/04 20:48:46;;;;;;;78.55;7.72;;;;;;;;;;5047181;28;20021;-56
2023/06/04 20:51:11;;;;;;;107.85;9.10;;;;;;;;;;5075116;28;20487;-57
2023/06/04 20:53:37;;;;;;;72.35;6.95;;;;;;;;;;5045871;28;20033;-57
2023/06/04 20:56:02;;;;;;;127.72;11.23;;;;;;;;;;5075972;28;20044;-57
2023/06/04 20:58:29;;;;;;;71.13;6.80;;;;;;;;;;5048181;28;20119;-57
2023/06/04 21:00:54;;;;;;;89.97;8.45;;;;;;;;;;5046975;28;20040;-57
2023/06/04 21:03:20;;;;;;;93.38;8.23;;;;;;;;;;5044853;28;20031;-57
2023/06/04 21:05:45;;;;;;;75.50;7.28;;;;;;;;;;5045169;28;20072;-58
2023/06/04 21:08:10;;;;;;;65.18;6.47;;;;;;;;;;5046837;28;21715;-58
2023/06/04 21:10:36;;;;;;;71.30;7.20;;;;;;;;;;5045356;28;20055;-55
2023/06/04 21:13:01;;;;;;;135.00;11.10;;;;;;;;;;5042725;28;20572;-54
2023/06/04 21:15:26;;;;;;;81.22;7.28;;;;;;;;;;5043750;28;20089;-56
2023/06/04 21:17:51;;;;;;;83.93;8.02;;;;;;;;;;5046158;28;20033;-55
2023/06/04 21:20:17;;;;;;;76.57;7.25;;;;;;;;;;5045110;28;20044;-57
2023/06/04 21:22:43;;;;;;;81.60;7.43;;;;;;;;;;5043876;28;20037;-57
2023/06/04 21:25:08;;;;;;;128.52;11.00;;;;;;;;;;5044082;28;20138;-58
2023/06/04 21:27:33;;;;;;;65.47;6.75;;;;;;;;;;5044099;28;20506;-57
2023/06/04 21:29:59;;;;;;;89.38;7.85;;;;;;;;;;5042969;28;20072;-54
2023/06/04 21:32:24;;;;;;;84.05;7.30;;;;;;;;;;5042846;28;20032;-56
2023/06/04 21:34:49;;;;;;;77.13;7.10;;;;;;;;;;5044382;28;20031;-55
2023/06/04 21:37:14;;;;;;;88.73;8.03;;;;;;;;;;5042703;28;20271;-55
2023/06/04 21:39:40;;;;;;;70.45;6.80;;;;;;;;;;5045062;28;20782;-54
2023/06/04 21:42:05;;;;;;;129.00;11.33;;;;;;;;;;5041369;28;20128;-55
2023/06/04 21:44:30;;;;;;;102.40;8.65;;;;;;;;;;5044817;28;20017;-57
2023/06/04 21:46:56;;;;;;;102.17;8.93;;;;;;;;;;5043623;28;20029;-55
2023/06/04 21:49:21;;;;;;;83.47;7.80;;;;;;;;;;5043553;28;20331;-54
2023/06/04 21:51:46;;;;;;;117.40;9.70;;;;;;;;;;5041675;28;20574;-57
2023/06/04 21:54:12;;;;;;;123.07;10.73;;;;;;;;;;5043008;28;20071;-54
2023/06/04 21:56:37;;;;;;;86.17;7.87;;;;;;;;;;5042828;28;20520;-56
2023/06/04 21:59:02;;;;;;;124.43;10.73;;;;;;;;;;5043193;28;20629;-56
2023/06/04 22:01:27;;;;;;;86.50;7.60;;;;;;;;;;5056136;28;20348;-59
2023/06/04 22:03:53;;;;;;;77.93;7.00;;;;;;;;;;5075597;28;20024;-55
2023/06/04 22:06:18;;;;;;;84.27;7.47;;;;;;;;;;5042261;28;20712;-54
2023/06/04 22:08:43;;;;;;;90.40;7.93;;;;;;;;;;5044530;28;20577;-56
2023/06/04 22:11:08;;;;;;;171.50;13.40;;;;;;;;;;5042380;28;20295;-57
2023/06/04 22:13:33;;;;;;;78.95;6.95;;;;;;;;;;5042103;28;20707;-56
2023/06/04 22:15:59;;;;;;;106.82;9.40;;;;;;;;;;5040405;28;20410;-58
2023/06/04 22:18:24;;;;;;;84.22;7.40;;;;;;;;;;5044615;28;20078;-56
2023/06/04 22:20:49;;;;;;;76.53;6.95;;;;;;;;;;5042931;28;20071;-57
2023/06/04 22:23:15;;;;;;;77.35;7.00;;;;;;;;;;5040685;28;20017;-56
2023/06/04 22:25:40;;;;;;;62.55;6.07;;;;;;;;;;5044016;28;20053;-56
2023/06/04 22:28:05;;;;;;;130.47;10.90;;;;;;;;;;5042612;28;20024;-54
2023/06/04 22:30:31;;;;;;;95.30;8.17;;;;;;;;;;5043522;28;20290;-56
2023/06/04 22:32:56;;;;;;;97.05;8.13;;;;;;;;;;5043775;28;20263;-58
2023/06/04 22:35:21;;;;;;;81.70;7.38;;;;;;;;;;5038943;28;20060;-59
2023/06/04 22:37:46;;;;;;;98.43;8.17;;;;;;;;;;5036653;28;20025;-58
2023/06/04 22:40:13;;;;;;;143.57;11.40;;;;;;;;;;5037829;28;20764;-57
2023/06/04 22:42:38;;;;;;;69.68;6.72;;;;;;;;;;5040648;28;20280;-58
